Soaring Guidance
Issued by NWS Reno, NV

Home | Current Version | Previous Version | Text Only | Print | Product List | Glossary On
Versions: 1 2 3 4 5 6 7 8 9 10 11 12 13
000
UXUS97 KREV 301349
SRGREV

SOARING FORECAST
NATIONAL WEATHER SERVICE - RENO NV
700 AM PDT SAT APR 30 2016

THIS SOARING FORECAST IS FOR THE EASTERN SIERRA AND WESTERN NEVADA
WITH SPECIFIC INDICES FOR THE GREATER RENO AREA.

THIS FORECAST IS PREPARED DAILY BY 700 AM AND IS NOT UPDATED.

FOR CURRENT FLIGHT CONDITIONS...FORECASTS...AND ADVISORIES...ACCESS
YOUR LOCAL BRIEFING OUTLET OR FLIGHT SERVICE STATION.

*******************************************************************
FORECASTED LOCAL INDICES FOR RENO:        TODAY     YESTERDAY
FORECASTED MAX TEMP AT RENO (DEG F).....     61          69
FORECASTED TRIGGER TEMPERATURE (DEG F)..     46          52
   EXCEEDED YESTERDAY BY 955 AM PDT
FORECASTED MAXIMUM ALTITUDE (FT MSL)....  14000       13700
FORECASTED SOARING INDEX (FPM)..........    720         651
FORECASTED K-INDEX.........VALID 18Z....     23          20
FORECASTED K-INDEX.........VALID 00Z....     25          23
FORECASTED LIFTED INDEX....VALID 18Z....      5           5
FORECASTED LIFTED INDEX....VALID 00Z....      4           2

AFTERNOON WINDS ALOFT FORECAST
MSL (FT) WIND/TEMP
9000  0419/+02
10000 0520/+00
12000 0721/-06
14000 0420/-10
16000 0318/-14
18000 0313/-19
24000 0220/-32
30000 0154/-46
34000 3677/-51
39000 0154/-56

SLIDE MOUNTAIN DATA:
     DATE       TIME     TEMP  DEWPT   RH         WIND (MPH)
                        (F)   (F)           | DIR  SPEED GUST
2016-04-30    05:50      21    20     96    | 048   14   19
2016-04-30    05:30      21    20     96    | 054   17   21
2016-04-30    05:20      21    19     95    | 045   16   22
2016-04-30    05:00      21    19     95    | 035   17   23

RENO TAF FORECAST:
KRNO 301120Z 3012/0112 34011KT P6SM BKN045 BKN060
     FM301700 03013G23KT P6SM SCT050
     FM302300 06011KT P6SM SCT060
     FM010300 VRB04KT P6SM FEW070

CARSON CITY TAF FORECAST:
KCXP 301120Z 3012/0112 03011KT P6SM BKN050
     FM301600 05013G23KT P6SM BKN050
     FM302000 07013G23KT P6SM SCT050
     FM010400 01008KT P6SM FEW060

OUTLOOK FOR THE RENO-CARSON CITY-MINDEN AREA:
.SUNDAY...SUNNY IN THE MORNING...THEN PARTLY CLOUDY WITH A SLIGHT
CHANCE OF SHOWERS AND THUNDERSTORMS IN THE AFTERNOON. HIGHS 65 TO
70. NORTHEAST WINDS UP TO 10 MPH INCREASING TO EAST IN THE
AFTERNOON.

SUNRISE AND SUNSET
APRIL 30 2016.........SUNRISE   601 AM PDT   SUNSET   752 PM PDT
MAY  1 2016...........SUNRISE   559 AM PDT   SUNSET   753 PM PDT


USA.gov is the U.S. government's official web portal to all federal, state and local government web resources and services.